Time;durP1;ratioP1;P1;durP2;ratioP2;P2;SDS_P1;SDS_P2;PMS_P1;PMS_P2;Temp;Humidity;BMP_temperature;BMP_pressure;BME280_temperature;BME280_humidity;BME280_pressure;Samples;Min_cycle;Max_cycle;Signal;HPM_P1;HPM_P2
2022/03/30 00:00:56;;;;;;;25.00;7.50;;;;;;;;;;5018732;28;20453;-77
2022/03/30 00:03:22;;;;;;;30.83;8.57;;;;;;;;;;5035932;28;20457;-77
2022/03/30 00:05:48;;;;;;;16.37;7.27;;;;;;;;;;5036787;28;20423;-77
2022/03/30 00:08:14;;;;;;;15.67;7.17;;;;;;;;;;5035910;28;20421;-77
2022/03/30 00:10:41;;;;;;;14.97;6.00;;;;;;;;;;5035865;28;20434;-77
2022/03/30 00:13:08;;;;;;;20.80;6.97;;;;;;;;;;5035628;28;20402;-78
2022/03/30 00:15:34;;;;;;;25.27;7.90;;;;;;;;;;5035543;28;20468;-76
2022/03/30 00:18:00;;;;;;;19.90;7.60;;;;;;;;;;5035788;28;20898;-77
2022/03/30 00:20:26;;;;;;;24.50;9.37;;;;;;;;;;5034678;28;20424;-77
2022/03/30 00:22:52;;;;;;;28.60;8.27;;;;;;;;;;5035793;28;20402;-77
2022/03/30 00:25:20;;;;;;;23.43;7.80;;;;;;;;;;5035714;28;20407;-76
2022/03/30 00:27:46;;;;;;;23.70;8.67;;;;;;;;;;5035541;28;20411;-77
2022/03/30 00:30:14;;;;;;;19.40;7.60;;;;;;;;;;5042375;28;20426;-77
2022/03/30 00:32:40;;;;;;;31.67;8.83;;;;;;;;;;5035616;28;20402;-76
2022/03/30 00:35:07;;;;;;;26.63;8.37;;;;;;;;;;5035379;28;20549;-77
2022/03/30 00:37:34;;;;;;;20.70;8.40;;;;;;;;;;5035343;28;20403;-79
2022/03/30 00:40:00;;;;;;;20.40;8.67;;;;;;;;;;5034986;28;20436;-77
2022/03/30 00:42:26;;;;;;;15.97;7.63;;;;;;;;;;5035263;28;20406;-77
2022/03/30 00:44:53;;;;;;;21.50;8.27;;;;;;;;;;5034695;28;20433;-77
2022/03/30 00:47:21;;;;;;;19.10;8.00;;;;;;;;;;5034461;28;20811;-78
2022/03/30 00:49:47;;;;;;;21.40;7.93;;;;;;;;;;5036495;28;20442;-77
2022/03/30 00:52:14;;;;;;;36.90;9.20;;;;;;;;;;5037847;28;20410;-77
2022/03/30 00:54:41;;;;;;;21.90;7.77;;;;;;;;;;5036176;28;20762;-77
2022/03/30 00:57:09;;;;;;;22.33;8.23;;;;;;;;;;5034529;28;20509;-77
2022/03/30 00:59:35;;;;;;;28.00;9.13;;;;;;;;;;5034849;28;20430;-78
2022/03/30 01:02:02;;;;;;;19.40;9.30;;;;;;;;;;5035299;28;20410;-77
2022/03/30 01:04:28;;;;;;;25.50;8.20;;;;;;;;;;5034758;28;20970;-77
2022/03/30 01:06:54;;;;;;;15.93;6.90;;;;;;;;;;5020676;28;20406;-78
2022/03/30 01:09:20;;;;;;;18.80;7.20;;;;;;;;;;5041475;28;20434;-78
2022/03/30 01:11:51;;;;;;;22.03;7.77;;;;;;;;;;5036886;28;20748;-78
2022/03/30 01:14:18;;;;;;;19.97;9.43;;;;;;;;;;5034543;28;20386;-77
2022/03/30 01:16:44;;;;;;;23.83;8.03;;;;;;;;;;5034976;28;20474;-76
2022/03/30 01:19:11;;;;;;;21.87;8.30;;;;;;;;;;5034990;28;20441;-77
2022/03/30 01:21:37;;;;;;;17.53;8.97;;;;;;;;;;5033889;28;20395;-77
2022/03/30 01:24:04;;;;;;;30.50;8.97;;;;;;;;;;5033774;28;20399;-77
2022/03/30 01:26:30;;;;;;;16.43;7.37;;;;;;;;;;5034422;28;20403;-79
2022/03/30 01:28:57;;;;;;;22.83;8.30;;;;;;;;;;5035049;28;20414;-78
2022/03/30 01:34:07;;;;;;;18.40;7.83;;;;;;;;;;5038403;28;20861;-78
2022/03/30 01:36:37;;;;;;;25.77;10.20;;;;;;;;;;5037054;28;20458;-79
2022/03/30 01:39:04;;;;;;;20.53;7.83;;;;;;;;;;5015611;28;20549;-76
2022/03/30 01:41:30;;;;;;;18.63;7.20;;;;;;;;;;5015927;28;20434;-77
2022/03/30 01:43:56;;;;;;;19.93;7.10;;;;;;;;;;5025476;28;20406;-77
2022/03/30 01:46:22;;;;;;;18.53;7.67;;;;;;;;;;5033776;28;20414;-78
2022/03/30 01:48:49;;;;;;;20.33;8.70;;;;;;;;;;5033745;28;20414;-77
2022/03/30 01:51:15;;;;;;;22.53;7.07;;;;;;;;;;5033889;28;20928;-77
2022/03/30 01:53:41;;;;;;;22.93;7.80;;;;;;;;;;5034215;28;20429;-77
2022/03/30 01:56:07;;;;;;;23.10;7.83;;;;;;;;;;5035399;28;20549;-77
2022/03/30 01:58:33;;;;;;;44.73;8.17;;;;;;;;;;5016019;28;20409;-77
2022/03/30 02:01:00;;;;;;;18.50;7.60;;;;;;;;;;5033352;28;20407;-78
2022/03/30 02:03:27;;;;;;;24.73;8.90;;;;;;;;;;5033607;28;20406;-77
2022/03/30 02:05:54;;;;;;;16.90;6.93;;;;;;;;;;5033665;28;20446;-77
2022/03/30 02:08:20;;;;;;;23.27;7.50;;;;;;;;;;5033620;28;20832;-77
2022/03/30 02:10:47;;;;;;;18.60;8.27;;;;;;;;;;5037553;28;20905;-78
2022/03/30 02:13:13;;;;;;;26.80;7.50;;;;;;;;;;5039903;28;20411;-77
2022/03/30 02:15:39;;;;;;;22.83;8.27;;;;;;;;;;5033483;28;20490;-77
2022/03/30 02:18:06;;;;;;;25.73;8.17;;;;;;;;;;5016132;28;20410;-77
2022/03/30 02:20:32;;;;;;;33.90;8.67;;;;;;;;;;5034238;28;20518;-76
2022/03/30 02:22:58;;;;;;;20.63;7.17;;;;;;;;;;5034037;28;20441;-77
2022/03/30 02:25:26;;;;;;;20.00;7.57;;;;;;;;;;5033505;28;20407;-77
2022/03/30 02:27:52;;;;;;;19.97;7.90;;;;;;;;;;5033773;28;20486;-77
2022/03/30 02:30:18;;;;;;;23.83;8.57;;;;;;;;;;5033824;28;20419;-78
2022/03/30 02:32:44;;;;;;;31.33;8.37;;;;;;;;;;5033941;28;20407;-77
2022/03/30 02:35:12;;;;;;;20.73;8.17;;;;;;;;;;5033763;28;20450;-77
2022/03/30 02:37:38;;;;;;;21.23;8.07;;;;;;;;;;5033996;28;20889;-78
2022/03/30 02:40:05;;;;;;;32.87;10.40;;;;;;;;;;5033418;28;20532;-78
2022/03/30 02:42:31;;;;;;;15.23;7.73;;;;;;;;;;5036513;28;20878;-78
2022/03/30 02:44:57;;;;;;;20.57;7.90;;;;;;;;;;5036799;28;20402;-77
2022/03/30 02:48:17;;;;;;;22.97;8.93;;;;;;;;;;5037130;28;20400;-76
2022/03/30 02:50:09;;;;;;;25.73;8.97;;;;;;;;;;5037154;28;20441;-77
2022/03/30 02:52:35;;;;;;;19.50;7.40;;;;;;;;;;5036547;28;20447;-77
2022/03/30 02:55:01;;;;;;;21.60;8.00;;;;;;;;;;5036060;28;20937;-77
2022/03/30 02:57:27;;;;;;;27.30;9.30;;;;;;;;;;5036672;28;20910;-77
2022/03/30 02:59:53;;;;;;;18.47;7.40;;;;;;;;;;5036940;28;20480;-78
2022/03/30 03:02:19;;;;;;;22.40;8.23;;;;;;;;;;5036512;28;20406;-77
2022/03/30 03:04:46;;;;;;;26.80;7.83;;;;;;;;;;5036662;28;20405;-79
2022/03/30 03:07:14;;;;;;;27.63;7.70;;;;;;;;;;5037581;28;20890;-77
2022/03/30 03:09:40;;;;;;;21.47;9.60;;;;;;;;;;5019284;28;20848;-77
2022/03/30 03:12:06;;;;;;;36.33;8.87;;;;;;;;;;5037030;28;20489;-77
2022/03/30 03:14:33;;;;;;;25.70;8.53;;;;;;;;;;5031408;28;20433;-77
2022/03/30 03:16:59;;;;;;;20.30;7.77;;;;;;;;;;5040599;28;20494;-77
2022/03/30 03:19:25;;;;;;;22.50;7.90;;;;;;;;;;5029688;28;20462;-77
2022/03/30 03:21:51;;;;;;;22.40;7.83;;;;;;;;;;5030006;28;20407;-78
2022/03/30 03:24:17;;;;;;;17.27;7.90;;;;;;;;;;5038658;28;20417;-78
2022/03/30 03:26:43;;;;;;;22.23;8.33;;;;;;;;;;5037027;28;20423;-78
2022/03/30 03:29:09;;;;;;;25.00;10.13;;;;;;;;;;5036604;28;20442;-77
2022/03/30 03:31:35;;;;;;;23.17;8.23;;;;;;;;;;5036176;28;20402;-77
2022/03/30 03:34:01;;;;;;;27.87;8.47;;;;;;;;;;5035912;28;20411;-77
2022/03/30 03:36:27;;;;;;;28.63;8.27;;;;;;;;;;5042339;28;20458;-78
2022/03/30 03:38:54;;;;;;;17.33;8.30;;;;;;;;;;5036723;28;20863;-77
2022/03/30 03:41:20;;;;;;;21.40;7.50;;;;;;;;;;5037315;28;20460;-77
2022/03/30 03:43:46;;;;;;;21.43;8.40;;;;;;;;;;5036610;28;20434;-77
2022/03/30 03:46:12;;;;;;;20.07;7.50;;;;;;;;;;5040340;28;20399;-78
2022/03/30 03:48:38;;;;;;;12.63;6.83;;;;;;;;;;5040877;28;20418;-78
2022/03/30 03:51:04;;;;;;;21.33;8.83;;;;;;;;;;5041646;28;20406;-78
2022/03/30 03:53:31;;;;;;;15.63;7.83;;;;;;;;;;5036199;28;20407;-78
2022/03/30 03:55:57;;;;;;;19.67;8.47;;;;;;;;;;5036518;28;20451;-78
2022/03/30 03:58:23;;;;;;;21.50;8.67;;;;;;;;;;5033781;28;20456;-77
2022/03/30 04:00:49;;;;;;;21.70;9.73;;;;;;;;;;5020458;28;20496;-78
2022/03/30 04:03:15;;;;;;;30.17;9.03;;;;;;;;;;5003557;28;20400;-78
2022/03/30 04:05:41;;;;;;;16.97;7.73;;;;;;;;;;5026946;28;20439;-78
2022/03/30 04:08:08;;;;;;;21.10;8.70;;;;;;;;;;5016942;28;20509;-76
2022/03/30 04:10:34;;;;;;;32.37;9.73;;;;;;;;;;5016551;28;20527;-78
2022/03/30 04:13:00;;;;;;;23.07;10.17;;;;;;;;;;5016250;28;20412;-78
2022/03/30 04:15:26;;;;;;;30.10;9.50;;;;;;;;;;5019418;28;20516;-78
2022/03/30 04:17:54;;;;;;;22.23;7.93;;;;;;;;;;5018989;28;20411;-78
2022/03/30 04:20:20;;;;;;;19.53;9.33;;;;;;;;;;5018774;28;20481;-78
2022/03/30 04:22:47;;;;;;;25.10;7.60;;;;;;;;;;5019488;28;20412;-78
2022/03/30 04:25:13;;;;;;;26.27;8.77;;;;;;;;;;4999733;28;20414;-77
2022/03/30 04:27:46;;;;;;;26.47;9.23;;;;;;;;;;5015553;28;20426;-76
2022/03/30 04:30:13;;;;;;;26.60;7.77;;;;;;;;;;5015721;28;20828;-77
2022/03/30 04:32:39;;;;;;;20.50;6.77;;;;;;;;;;5015847;28;20412;-77
2022/03/30 04:35:05;;;;;;;30.67;8.63;;;;;;;;;;5015935;28;20419;-78
2022/03/30 04:37:31;;;;;;;20.40;9.30;;;;;;;;;;4997723;28;20800;-76
2022/03/30 04:39:57;;;;;;;21.73;9.93;;;;;;;;;;5042811;23;20555;-77
2022/03/30 04:42:23;;;;;;;19.30;8.60;;;;;;;;;;5016496;28;20418;-76
2022/03/30 04:44:49;;;;;;;20.37;7.90;;;;;;;;;;5034964;28;20421;-77
2022/03/30 04:47:16;;;;;;;16.97;8.40;;;;;;;;;;5019175;28;20407;-77
2022/03/30 04:49:42;;;;;;;30.83;8.73;;;;;;;;;;5034252;28;20434;-77
2022/03/30 04:52:08;;;;;;;22.80;9.90;;;;;;;;;;5035024;28;20406;-77
2022/03/30 04:54:34;;;;;;;19.13;7.00;;;;;;;;;;5035367;28;20405;-77
2022/03/30 04:57:00;;;;;;;16.20;7.23;;;;;;;;;;5035366;28;20454;-77
2022/03/30 04:59:26;;;;;;;23.67;8.27;;;;;;;;;;5035400;28;20426;-78
2022/03/30 05:01:52;;;;;;;19.23;8.67;;;;;;;;;;5035184;28;20410;-77
2022/03/30 05:04:18;;;;;;;26.13;9.97;;;;;;;;;;5034342;28;20417;-76
2022/03/30 05:06:44;;;;;;;19.33;8.23;;;;;;;;;;5033070;28;20435;-76
2022/03/30 05:09:12;;;;;;;22.23;8.80;;;;;;;;;;5033861;28;20910;-77
2022/03/30 05:11:39;;;;;;;23.97;9.67;;;;;;;;;;5016412;28;20406;-76
2022/03/30 05:14:05;;;;;;;19.37;8.90;;;;;;;;;;5033827;28;20406;-76
2022/03/30 05:16:31;;;;;;;24.23;9.30;;;;;;;;;;5034015;28;20446;-77
2022/03/30 05:18:57;;;;;;;16.47;8.93;;;;;;;;;;5015775;28;20888;-77
2022/03/30 05:21:23;;;;;;;27.80;9.47;;;;;;;;;;5016710;28;20839;-77
2022/03/30 05:23:49;;;;;;;25.13;8.93;;;;;;;;;;5017964;28;20429;-77
2022/03/30 05:26:15;;;;;;;21.27;8.50;;;;;;;;;;5036206;28;20781;-78
2022/03/30 05:28:42;;;;;;;18.57;8.23;;;;;;;;;;5036265;28;20410;-77
2022/03/30 05:31:09;;;;;;;22.27;11.60;;;;;;;;;;5036132;28;20802;-77
2022/03/30 05:33:35;;;;;;;16.47;8.30;;;;;;;;;;5036282;28;20406;-77
2022/03/30 05:36:01;;;;;;;27.00;10.40;;;;;;;;;;5035631;28;20446;-77
2022/03/30 05:38:27;;;;;;;19.07;8.90;;;;;;;;;;5036762;28;20411;-77
2022/03/30 05:40:53;;;;;;;20.03;10.23;;;;;;;;;;5036535;28;20997;-77
2022/03/30 05:43:21;;;;;;;23.67;8.97;;;;;;;;;;5035669;28;20913;-77
2022/03/30 05:45:47;;;;;;;22.87;9.30;;;;;;;;;;5036600;28;20922;-77
2022/03/30 05:48:15;;;;;;;22.23;10.23;;;;;;;;;;5038550;28;20405;-77
2022/03/30 05:50:41;;;;;;;20.47;10.30;;;;;;;;;;5037351;28;20833;-77
2022/03/30 05:53:07;;;;;;;25.40;9.17;;;;;;;;;;5036605;28;20913;-77
2022/03/30 05:55:34;;;;;;;28.43;9.47;;;;;;;;;;5018163;28;20442;-77
2022/03/30 05:58:02;;;;;;;25.30;12.63;;;;;;;;;;5036254;28;20903;-78
2022/03/30 06:00:28;;;;;;;24.10;8.97;;;;;;;;;;5018909;28;20968;-77
2022/03/30 06:02:54;;;;;;;20.70;8.03;;;;;;;;;;5036320;28;20492;-77
2022/03/30 06:05:21;;;;;;;24.70;9.03;;;;;;;;;;5036287;28;20414;-77
2022/03/30 06:07:47;;;;;;;17.33;8.20;;;;;;;;;;5038185;28;20938;-77
2022/03/30 06:10:13;;;;;;;17.80;7.60;;;;;;;;;;5036948;28;20423;-77
2022/03/30 06:12:39;;;;;;;24.10;9.07;;;;;;;;;;5036804;28;20409;-77
2022/03/30 06:15:05;;;;;;;14.50;7.37;;;;;;;;;;5036148;28;20493;-77
2022/03/30 06:17:31;;;;;;;23.70;7.90;;;;;;;;;;5019889;28;20855;-77
2022/03/30 06:19:59;;;;;;;26.17;8.80;;;;;;;;;;5039930;28;20625;-77
2022/03/30 06:22:29;;;;;;;22.57;9.30;;;;;;;;;;5021982;28;20763;-77
2022/03/30 06:24:56;;;;;;;21.80;9.13;;;;;;;;;;5040644;28;20748;-77
2022/03/30 06:27:22;;;;;;;31.47;9.50;;;;;;;;;;5040426;28;20413;-77
2022/03/30 06:29:48;;;;;;;23.03;9.10;;;;;;;;;;5039771;28;20876;-77
2022/03/30 06:32:14;;;;;;;19.67;8.57;;;;;;;;;;5022220;28;20468;-77
2022/03/30 06:34:40;;;;;;;27.80;8.83;;;;;;;;;;5040050;28;20501;-77
2022/03/30 06:37:07;;;;;;;29.83;8.20;;;;;;;;;;5039597;28;20485;-77
2022/03/30 06:39:33;;;;;;;20.20;8.20;;;;;;;;;;5022358;28;20873;-77
2022/03/30 06:41:59;;;;;;;25.50;8.70;;;;;;;;;;5033562;28;20417;-77
2022/03/30 06:44:26;;;;;;;17.07;8.40;;;;;;;;;;5032651;28;20608;-76
2022/03/30 06:46:52;;;;;;;27.53;7.97;;;;;;;;;;5023835;28;20414;-78
2022/03/30 06:49:18;;;;;;;32.83;8.20;;;;;;;;;;5038187;28;20961;-78
2022/03/30 06:51:44;;;;;;;30.53;8.47;;;;;;;;;;5036628;28;20898;-78
2022/03/30 06:54:10;;;;;;;18.60;7.07;;;;;;;;;;5039573;28;20417;-78
2022/03/30 06:56:36;;;;;;;24.47;7.70;;;;;;;;;;5038789;28;20458;-79
2022/03/30 06:59:02;;;;;;;21.53;8.40;;;;;;;;;;5040748;28;20414;-78
2022/03/30 07:01:28;;;;;;;27.73;6.70;;;;;;;;;;5042595;28;20433;-77
2022/03/30 07:03:54;;;;;;;26.43;8.13;;;;;;;;;;5041372;28;20415;-78
2022/03/30 07:06:20;;;;;;;26.20;9.20;;;;;;;;;;5024026;28;20830;-77
2022/03/30 07:11:31;;;;;;;25.87;6.20;;;;;;;;;;5030423;28;20491;-78
2022/03/30 07:13:58;;;;;;;32.00;9.70;;;;;;;;;;5041510;28;20414;-77
2022/03/30 07:16:24;;;;;;;34.20;8.00;;;;;;;;;;5020467;28;20533;-78
2022/03/30 07:18:50;;;;;;;23.70;9.38;;;;;;;;;;5017569;28;20436;-77
2022/03/30 07:21:16;;;;;;;23.80;7.30;;;;;;;;;;5038254;28;20223;-78
2022/03/30 07:23:43;;;;;;;26.93;8.90;;;;;;;;;;5040330;28;20421;-78
2022/03/30 07:26:09;;;;;;;20.47;7.13;;;;;;;;;;5034387;28;20430;-77
2022/03/30 07:28:37;;;;;;;30.67;7.50;;;;;;;;;;5039970;28;20483;-79
2022/03/30 07:31:03;;;;;;;25.70;8.23;;;;;;;;;;5043689;28;20442;-78
2022/03/30 07:33:32;;;;;;;24.77;6.43;;;;;;;;;;5039365;28;20414;-78
2022/03/30 07:35:58;;;;;;;28.40;7.90;;;;;;;;;;5038957;28;20461;-79
2022/03/30 07:38:24;;;;;;;28.77;7.50;;;;;;;;;;5028292;28;20419;-78
2022/03/30 07:40:50;;;;;;;25.60;10.90;;;;;;;;;;5040524;28;20458;-79
2022/03/30 07:43:17;;;;;;;28.77;9.33;;;;;;;;;;5037967;28;20418;-77
2022/03/30 07:45:43;;;;;;;31.03;8.03;;;;;;;;;;5027936;28;20415;-78
2022/03/30 07:48:10;;;;;;;25.83;8.00;;;;;;;;;;5041727;28;20426;-79
2022/03/30 07:50:37;;;;;;;23.23;7.43;;;;;;;;;;5046812;28;20498;-78
2022/03/30 07:53:07;;;;;;;24.53;6.70;;;;;;;;;;5044691;28;20495;-78
2022/03/30 07:55:34;;;;;;;25.30;7.17;;;;;;;;;;5044042;28;20461;-78
2022/03/30 07:58:00;;;;;;;25.30;6.40;;;;;;;;;;5041259;28;20424;-77
2022/03/30 08:00:27;;;;;;;21.30;6.73;;;;;;;;;;5021958;28;20436;-77
2022/03/30 08:02:53;;;;;;;26.20;7.50;;;;;;;;;;5036076;28;20453;-77
2022/03/30 08:05:21;;;;;;;32.67;8.00;;;;;;;;;;5030103;28;20433;-77
2022/03/30 08:07:50;;;;;;;35.20;8.60;;;;;;;;;;5028801;28;20491;-77
2022/03/30 08:10:17;;;;;;;18.23;6.87;;;;;;;;;;5036096;28;20442;-77
2022/03/30 08:12:44;;;;;;;20.20;8.47;;;;;;;;;;5015968;28;20422;-77
2022/03/30 08:15:12;;;;;;;26.43;8.50;;;;;;;;;;5011530;28;20426;-77
2022/03/30 08:17:38;;;;;;;15.37;7.23;;;;;;;;;;5036270;28;20792;-79
2022/03/30 08:20:04;;;;;;;26.60;7.87;;;;;;;;;;5020225;28;20501;-78
2022/03/30 08:22:30;;;;;;;24.90;9.23;;;;;;;;;;5036339;28;20759;-78
2022/03/30 08:24:58;;;;;;;19.70;7.47;;;;;;;;;;5036870;28;20423;-77
2022/03/30 08:27:26;;;;;;;30.80;8.47;;;;;;;;;;5036061;28;20422;-77
2022/03/30 08:29:52;;;;;;;20.10;7.60;;;;;;;;;;5017614;28;20498;-78
2022/03/30 08:32:19;;;;;;;21.77;6.80;;;;;;;;;;5034204;28;20558;-77
2022/03/30 08:34:45;;;;;;;16.97;6.30;;;;;;;;;;5036272;28;20501;-76
2022/03/30 08:37:12;;;;;;;27.53;8.63;;;;;;;;;;5031909;28;20459;-77
2022/03/30 08:39:38;;;;;;;25.83;8.90;;;;;;;;;;5038306;28;20442;-77
2022/03/30 08:42:05;;;;;;;28.37;7.97;;;;;;;;;;5019073;28;20419;-77
2022/03/30 08:44:32;;;;;;;24.92;7.05;;;;;;;;;;5017174;28;20414;-78
2022/03/30 08:46:59;;;;;;;27.30;9.40;;;;;;;;;;5036338;28;20172;-78
2022/03/30 08:49:27;;;;;;;33.33;7.83;;;;;;;;;;5031006;28;20494;-77
2022/03/30 08:51:55;;;;;;;25.43;7.03;;;;;;;;;;5015191;28;20443;-77
2022/03/30 08:54:21;;;;;;;35.33;8.17;;;;;;;;;;5032076;28;20426;-77
2022/03/30 08:56:48;;;;;;;26.87;7.47;;;;;;;;;;5039571;28;20906;-78
2022/03/30 08:59:18;;;;;;;35.60;9.10;;;;;;;;;;5040721;28;20953;-77
2022/03/30 09:01:45;;;;;;;20.80;7.33;;;;;;;;;;5018052;28;20414;-77
2022/03/30 09:04:13;;;;;;;21.50;7.47;;;;;;;;;;5042241;28;20434;-78
2022/03/30 09:06:39;;;;;;;25.40;6.90;;;;;;;;;;5036630;28;20422;-77
2022/03/30 09:09:06;;;;;;;26.73;8.53;;;;;;;;;;5023271;28;20545;-77
2022/03/30 09:11:55;;;;;;;20.67;6.60;;;;;;;;;;5030791;28;20423;-77
2022/03/30 09:14:22;;;;;;;46.60;8.37;;;;;;;;;;5014732;28;20517;-77
2022/03/30 09:16:53;;;;;;;24.67;7.60;;;;;;;;;;5035756;28;20454;-77
2022/03/30 09:19:23;;;;;;;20.20;6.40;;;;;;;;;;5015773;28;20438;-77
2022/03/30 09:21:54;;;;;;;23.25;7.63;;;;;;;;;;5015767;28;20413;-77
2022/03/30 09:24:22;;;;;;;17.77;6.47;;;;;;;;;;5016018;28;20176;-77
2022/03/30 09:26:50;;;;;;;27.10;7.37;;;;;;;;;;5033455;28;20405;-77
2022/03/30 09:29:18;;;;;;;18.97;7.57;;;;;;;;;;5032313;28;20492;-77
2022/03/30 09:31:45;;;;;;;17.67;7.00;;;;;;;;;;5034558;28;20422;-77
2022/03/30 09:34:11;;;;;;;17.00;7.00;;;;;;;;;;5030707;28;20931;-76
2022/03/30 09:36:39;;;;;;;15.47;7.40;;;;;;;;;;5016319;28;20498;-77
2022/03/30 09:39:06;;;;;;;19.87;7.00;;;;;;;;;;5033536;28;20837;-77
2022/03/30 09:41:48;;;;;;;27.90;6.93;;;;;;;;;;5042660;28;20422;-76
2022/03/30 09:44:14;;;;;;;20.07;6.10;;;;;;;;;;5033404;28;20785;-77
2022/03/30 09:46:57;;;;;;;13.87;6.43;;;;;;;;;;5033424;28;20422;-76
2022/03/30 09:49:34;;;;;;;17.00;7.90;;;;;;;;;;5013434;28;20446;-77
2022/03/30 09:52:00;;;;;;;20.23;6.57;;;;;;;;;;5043165;28;20937;-77
2022/03/30 09:54:36;;;;;;;29.93;8.77;;;;;;;;;;5031005;28;20842;-77
2022/03/30 09:57:02;;;;;;;18.43;6.37;;;;;;;;;;5032773;28;20469;-78
2022/03/30 09:59:29;;;;;;;26.23;9.00;;;;;;;;;;5034955;28;20442;-77
2022/03/30 10:01:56;;;;;;;15.80;8.35;;;;;;;;;;5031614;28;20425;-77
2022/03/30 10:04:23;;;;;;;46.13;9.27;;;;;;;;;;5011607;28;20184;-77
2022/03/30 10:06:49;;;;;;;22.47;8.40;;;;;;;;;;5031163;28;20430;-77
2022/03/30 10:09:16;;;;;;;23.50;8.20;;;;;;;;;;5030876;28;21088;-77
2022/03/30 10:11:44;;;;;;;22.70;8.10;;;;;;;;;;5029374;28;20955;-77
2022/03/30 10:14:11;;;;;;;25.07;7.83;;;;;;;;;;5031165;28;20422;-77
2022/03/30 10:16:37;;;;;;;25.43;8.37;;;;;;;;;;5031916;28;20465;-77
2022/03/30 10:19:04;;;;;;;25.27;8.57;;;;;;;;;;5031181;28;20509;-77
2022/03/30 10:21:49;;;;;;;28.80;7.23;;;;;;;;;;5030990;28;21204;-77
2022/03/30 10:24:30;;;;;;;23.50;8.57;;;;;;;;;;5010796;28;20415;-77
2022/03/30 10:27:23;;;;;;;19.70;8.13;;;;;;;;;;5032431;28;20914;-77
2022/03/30 10:29:53;;;;;;;20.93;8.67;;;;;;;;;;4990503;28;20454;-77
2022/03/30 10:32:23;;;;;;;20.13;7.40;;;;;;;;;;5015469;28;20771;-77
2022/03/30 10:34:58;;;;;;;17.20;8.10;;;;;;;;;;5032949;28;21084;-77
2022/03/30 10:37:25;;;;;;;23.87;7.83;;;;;;;;;;5029222;28;20453;-77
2022/03/30 10:39:56;;;;;;;27.60;7.90;;;;;;;;;;5016474;28;20462;-78
2022/03/30 10:42:22;;;;;;;18.20;6.67;;;;;;;;;;4998872;28;21007;-77
2022/03/30 10:44:51;;;;;;;17.80;7.60;;;;;;;;;;5028420;28;20434;-79
2022/03/30 10:47:17;;;;;;;25.40;6.60;;;;;;;;;;5033803;28;20425;-78
2022/03/30 10:49:43;;;;;;;21.80;7.37;;;;;;;;;;5029267;28;20525;-77
2022/03/30 10:52:28;;;;;;;18.80;7.47;;;;;;;;;;5010075;28;20418;-77
2022/03/30 10:55:13;;;;;;;20.60;6.90;;;;;;;;;;5013375;28;20438;-78
2022/03/30 10:57:45;;;;;;;20.40;6.83;;;;;;;;;;5018678;28;20468;-78
2022/03/30 11:00:20;;;;;;;22.20;7.77;;;;;;;;;;5015438;28;20508;-78
2022/03/30 11:02:47;;;;;;;30.13;7.93;;;;;;;;;;5027937;28;20460;-78
2022/03/30 11:05:14;;;;;;;19.20;7.03;;;;;;;;;;5019807;28;20449;-78
2022/03/30 11:07:40;;;;;;;20.03;6.80;;;;;;;;;;5037051;28;20437;-78
2022/03/30 11:10:15;;;;;;;24.23;7.50;;;;;;;;;;5037822;28;20460;-78
2022/03/30 11:12:57;;;;;;;21.40;7.73;;;;;;;;;;5035095;28;20435;-78
2022/03/30 11:15:23;;;;;;;19.33;6.23;;;;;;;;;;5031401;28;20407;-77
2022/03/30 11:17:50;;;;;;;34.00;7.17;;;;;;;;;;5018199;28;20508;-77
2022/03/30 11:20:16;;;;;;;21.13;6.23;;;;;;;;;;5046140;23;20547;-78
2022/03/30 11:22:44;;;;;;;25.03;8.80;;;;;;;;;;5015417;28;20988;-79
2022/03/30 11:25:20;;;;;;;15.00;6.70;;;;;;;;;;5021877;28;20441;-78
2022/03/30 11:27:59;;;;;;;31.27;7.40;;;;;;;;;;5019955;28;20406;-76
2022/03/30 11:30:28;;;;;;;16.83;7.03;;;;;;;;;;5037753;28;20431;-78
2022/03/30 11:32:54;;;;;;;17.87;6.50;;;;;;;;;;5038025;28;20410;-79
2022/03/30 11:35:21;;;;;;;17.87;8.00;;;;;;;;;;5042495;28;20414;-79
2022/03/30 11:37:49;;;;;;;20.87;8.03;;;;;;;;;;5044137;28;20987;-78
2022/03/30 11:40:19;;;;;;;19.33;7.03;;;;;;;;;;5042994;28;20470;-78
2022/03/30 11:42:50;;;;;;;23.20;7.50;;;;;;;;;;5042658;28;20938;-77
2022/03/30 11:45:21;;;;;;;25.10;8.50;;;;;;;;;;5036625;28;20894;-79
2022/03/30 11:47:54;;;;;;;21.23;7.37;;;;;;;;;;5039957;28;20210;-78
2022/03/30 11:50:25;;;;;;;20.97;6.60;;;;;;;;;;5041395;28;20438;-77
2022/03/30 11:52:55;;;;;;;21.67;7.87;;;;;;;;;;5050834;28;20414;-77
2022/03/30 11:55:21;;;;;;;17.20;7.63;;;;;;;;;;5043179;28;20419;-79
2022/03/30 11:57:47;;;;;;;16.77;7.50;;;;;;;;;;5041566;28;20430;-79
2022/03/30 12:00:13;;;;;;;14.70;6.77;;;;;;;;;;5043645;28;20433;-77
2022/03/30 12:02:42;;;;;;;28.70;7.60;;;;;;;;;;5031697;28;20418;-78
2022/03/30 12:05:09;;;;;;;21.67;9.20;;;;;;;;;;5035031;28;20418;-79
2022/03/30 12:07:36;;;;;;;17.60;8.25;;;;;;;;;;5028907;28;20421;-75
2022/03/30 12:10:02;;;;;;;17.17;8.40;;;;;;;;;;5032306;28;20570;-77
2022/03/30 12:12:49;;;;;;;22.70;7.80;;;;;;;;;;5035857;28;20914;-77
2022/03/30 12:15:17;;;;;;;20.23;6.70;;;;;;;;;;5025496;28;20781;-76
2022/03/30 12:17:44;;;;;;;16.30;7.00;;;;;;;;;;5025295;28;20427;-76
2022/03/30 12:20:11;;;;;;;18.63;8.50;;;;;;;;;;5027916;28;20458;-76
2022/03/30 12:22:38;;;;;;;17.53;8.40;;;;;;;;;;5015593;28;20537;-75
2022/03/30 12:25:19;;;;;;;27.27;8.77;;;;;;;;;;5029445;28;20414;-76
2022/03/30 12:27:45;;;;;;;22.60;9.00;;;;;;;;;;5031205;28;20414;-76
2022/03/30 12:30:11;;;;;;;21.83;8.23;;;;;;;;;;5033801;28;20434;-76
2022/03/30 12:32:37;;;;;;;22.10;10.23;;;;;;;;;;5025862;28;20416;-76
2022/03/30 12:35:16;;;;;;;18.60;8.27;;;;;;;;;;5017109;28;20418;-77
2022/03/30 12:37:43;;;;;;;20.97;9.23;;;;;;;;;;5034555;28;20428;-75
2022/03/30 12:40:13;;;;;;;28.73;10.70;;;;;;;;;;5031993;28;20438;-75
2022/03/30 12:42:39;;;;;;;18.70;9.83;;;;;;;;;;5033515;28;20509;-76
2022/03/30 12:45:10;;;;;;;18.10;9.37;;;;;;;;;;5028458;28;20414;-76
2022/03/30 12:47:38;;;;;;;21.57;10.73;;;;;;;;;;5033300;28;20410;-76
2022/03/30 12:50:12;;;;;;;23.03;9.73;;;;;;;;;;5035311;28;20437;-75
2022/03/30 12:52:42;;;;;;;19.80;9.13;;;;;;;;;;5016149;28;20516;-76
2022/03/30 12:55:16;;;;;;;18.10;8.97;;;;;;;;;;5029150;28;20434;-77
2022/03/30 12:58:11;;;;;;;22.40;8.97;;;;;;;;;;5032844;28;20437;-76
2022/03/30 13:00:41;;;;;;;15.87;9.40;;;;;;;;;;5012820;28;20774;-76
2022/03/30 13:03:10;;;;;;;20.73;9.80;;;;;;;;;;5029496;28;20407;-77
2022/03/30 13:05:36;;;;;;;22.77;9.00;;;;;;;;;;5033790;28;20454;-76
2022/03/30 13:08:09;;;;;;;17.53;9.20;;;;;;;;;;5032426;28;20472;-77
2022/03/30 13:10:55;;;;;;;26.20;9.70;;;;;;;;;;5013604;28;20434;-77
2022/03/30 13:13:32;;;;;;;15.27;9.13;;;;;;;;;;5007802;28;20972;-75
2022/03/30 13:16:09;;;;;;;17.27;11.13;;;;;;;;;;5029015;28;20454;-78
2022/03/30 13:18:36;;;;;;;16.30;9.23;;;;;;;;;;5028985;28;21043;-78
2022/03/30 13:21:06;;;;;;;29.37;10.47;;;;;;;;;;5020934;28;21115;-77
2022/03/30 13:23:45;;;;;;;16.93;9.13;;;;;;;;;;5031984;28;20714;-77
2022/03/30 13:26:29;;;;;;;23.97;9.60;;;;;;;;;;5014155;28;20410;-79
2022/03/30 13:28:56;;;;;;;31.53;11.30;;;;;;;;;;5032155;28;20452;-77
2022/03/30 13:31:23;;;;;;;18.23;9.20;;;;;;;;;;5017985;28;20410;-76
2022/03/30 13:33:49;;;;;;;24.00;11.17;;;;;;;;;;5030758;28;20456;-75
2022/03/30 13:36:16;;;;;;;18.03;10.03;;;;;;;;;;5031018;28;20470;-76
2022/03/30 13:38:46;;;;;;;21.77;10.97;;;;;;;;;;5021528;28;20442;-75
2022/03/30 13:41:12;;;;;;;19.17;10.80;;;;;;;;;;5028972;28;20456;-76
2022/03/30 13:43:38;;;;;;;25.67;11.50;;;;;;;;;;5012010;28;20406;-76
2022/03/30 13:46:05;;;;;;;22.33;11.60;;;;;;;;;;5022421;28;21041;-77
2022/03/30 13:48:31;;;;;;;25.07;13.20;;;;;;;;;;5021417;28;20419;-76
2022/03/30 13:51:00;;;;;;;29.50;12.63;;;;;;;;;;5001587;28;20510;-76
2022/03/30 13:53:26;;;;;;;25.73;11.47;;;;;;;;;;5014456;28;20422;-76
2022/03/30 13:55:52;;;;;;;22.27;10.10;;;;;;;;;;5013650;28;20584;-76
2022/03/30 13:58:18;;;;;;;23.37;12.27;;;;;;;;;;5032826;28;20505;-76
2022/03/30 14:00:45;;;;;;;22.70;12.03;;;;;;;;;;5007425;28;20421;-77
2022/03/30 14:03:11;;;;;;;24.43;12.30;;;;;;;;;;5031557;28;20436;-77
2022/03/30 14:05:37;;;;;;;20.13;10.90;;;;;;;;;;5031904;28;20407;-77
2022/03/30 14:08:03;;;;;;;22.77;12.90;;;;;;;;;;5026811;28;20452;-77
2022/03/30 14:10:30;;;;;;;18.27;11.80;;;;;;;;;;5029884;28;20431;-77
2022/03/30 14:12:56;;;;;;;19.27;12.33;;;;;;;;;;5032647;28;20492;-78
2022/03/30 14:15:22;;;;;;;22.53;13.03;;;;;;;;;;5033865;28;20434;-78
2022/03/30 14:17:50;;;;;;;36.20;14.00;;;;;;;;;;5033869;28;20426;-77
2022/03/30 14:20:16;;;;;;;24.27;12.90;;;;;;;;;;5032306;28;20477;-78
2022/03/30 14:22:44;;;;;;;25.57;14.13;;;;;;;;;;5022465;28;20420;-78
2022/03/30 14:25:11;;;;;;;26.70;12.57;;;;;;;;;;5008145;28;20423;-78
2022/03/30 14:27:38;;;;;;;28.33;13.10;;;;;;;;;;5028269;28;20422;-77
2022/03/30 14:30:05;;;;;;;28.50;13.00;;;;;;;;;;5027717;28;20509;-79
2022/03/30 14:32:31;;;;;;;22.97;12.60;;;;;;;;;;5016598;28;20437;-77
2022/03/30 14:34:57;;;;;;;25.25;14.10;;;;;;;;;;5022381;28;20435;-77
2022/03/30 14:37:23;;;;;;;27.07;13.10;;;;;;;;;;5027317;28;20511;-79